createdAt,value
2016-11-30T00:00:01.391Z,0
2016-11-30T00:01:16.320Z,0
2016-11-30T00:02:01.416Z,0
2016-11-30T00:03:01.430Z,0
2016-11-30T00:04:01.473Z,0
2016-11-30T00:05:01.457Z,0
2016-11-30T00:06:01.470Z,0
2016-11-30T00:07:01.489Z,0
2016-11-30T00:09:01.507Z,0
2016-11-30T00:10:01.523Z,0
2016-11-30T00:11:01.528Z,0
2016-11-30T00:12:01.549Z,0
2016-11-30T00:13:01.556Z,0
2016-11-30T00:14:16.498Z,0
2016-11-30T00:15:01.590Z,0
2016-11-30T00:16:01.600Z,0
2016-11-30T00:17:01.612Z,0
2016-11-30T00:18:01.631Z,0
2016-11-30T00:19:01.642Z,0
2016-11-30T00:20:01.660Z,0
2016-11-30T00:21:01.664Z,0
2016-11-30T00:23:01.713Z,0
2016-11-30T00:24:01.711Z,0
2016-11-30T00:25:01.718Z,0
2016-11-30T00:26:01.730Z,0
2016-11-30T00:27:01.741Z,0
2016-11-30T00:28:01.758Z,0
2016-11-30T00:29:16.695Z,0
2016-11-30T00:30:16.703Z,0
2016-11-30T00:31:16.715Z,0
2016-11-30T00:32:01.804Z,0
2016-11-30T00:33:01.833Z,0
2016-11-30T00:34:01.836Z,0
2016-11-30T00:35:01.855Z,0
2016-11-30T00:36:01.867Z,0
2016-11-30T00:37:01.926Z,0
2016-11-30T00:38:01.891Z,0
2016-11-30T00:39:01.903Z,0
2016-11-30T00:40:01.915Z,0
2016-11-30T00:41:16.853Z,0
2016-11-30T00:42:01.937Z,0
2016-11-30T00:43:01.953Z,0
2016-11-30T00:44:01.968Z,0
2016-11-30T00:45:01.983Z,0
2016-11-30T00:46:16.914Z,0
2016-11-30T00:47:16.927Z,0
2016-11-30T00:48:02.022Z,0
2016-11-30T00:49:02.240Z,0
2016-11-30T00:50:02.050Z,0
2016-11-30T00:51:02.061Z,0
2016-11-30T00:52:02.083Z,0
2016-11-30T00:53:02.082Z,0
2016-11-30T00:54:02.109Z,0
2016-11-30T00:57:02.143Z,0
2016-11-30T00:58:02.159Z,0
2016-11-30T00:59:17.086Z,0
2016-11-30T01:00:17.103Z,0
2016-11-30T01:01:17.114Z,0
2016-11-30T01:02:17.122Z,0
2016-11-30T01:04:17.154Z,0
2016-11-30T01:05:02.247Z,0
2016-11-30T01:06:02.250Z,0
2016-11-30T01:08:02.287Z,0
2016-11-30T01:09:02.292Z,0
2016-11-30T01:10:02.306Z,0
2016-11-30T01:12:02.333Z,0
2016-11-30T01:13:02.352Z,0
2016-11-30T01:14:02.366Z,0
2016-11-30T01:15:02.374Z,0
2016-11-30T01:16:02.380Z,0
2016-11-30T01:17:02.432Z,0
2016-11-30T01:18:02.418Z,0
2016-11-30T01:19:02.429Z,0
2016-11-30T01:20:02.435Z,0
2016-11-30T01:21:02.448Z,0
2016-11-30T01:22:02.471Z,0
2016-11-30T01:23:02.487Z,0
2016-11-30T01:24:02.499Z,0
2016-11-30T01:25:02.508Z,0
2016-11-30T01:26:02.525Z,0
2016-11-30T01:27:02.778Z,0
2016-11-30T01:28:02.542Z,0
2016-11-30T01:29:02.857Z,0
2016-11-30T01:30:17.494Z,0
2016-11-30T01:31:17.808Z,0
2016-11-30T01:32:17.518Z,0
2016-11-30T01:33:17.530Z,0
2016-11-30T01:34:02.655Z,0
2016-11-30T01:35:02.636Z,0
2016-11-30T01:36:02.955Z,0
2016-11-30T01:37:02.692Z,0
2016-11-30T01:38:02.670Z,0
2016-11-30T01:39:02.990Z,0
2016-11-30T01:40:02.701Z,0
2016-11-30T01:41:02.716Z,0
2016-11-30T01:42:02.728Z,0
2016-11-30T01:43:02.740Z,0
2016-11-30T01:44:02.752Z,0
2016-11-30T01:45:02.773Z,0
2016-11-30T01:46:02.783Z,0
2016-11-30T01:48:17.726Z,0
2016-11-30T01:49:17.738Z,0
2016-11-30T01:50:02.822Z,0
2016-11-30T01:51:02.839Z,0
2016-11-30T01:52:02.859Z,0
2016-11-30T01:54:02.876Z,0
2016-11-30T01:55:02.929Z,0
2016-11-30T01:56:02.904Z,0
2016-11-30T01:57:02.917Z,0
2016-11-30T01:58:17.861Z,0
2016-11-30T01:59:02.942Z,0
2016-11-30T02:00:02.968Z,0
2016-11-30T02:01:02.977Z,0
2016-11-30T02:02:02.984Z,0
2016-11-30T02:03:03.040Z,0
2016-11-30T02:04:03.012Z,0
2016-11-30T02:05:17.953Z,0
2016-11-30T02:06:03.037Z,0
2016-11-30T02:07:03.056Z,0
2016-11-30T02:08:03.062Z,0
2016-11-30T02:09:03.076Z,0
2016-11-30T02:10:03.089Z,0
2016-11-30T02:11:03.105Z,0
2016-11-30T02:12:03.116Z,0
2016-11-30T02:13:03.125Z,0
2016-11-30T02:14:03.147Z,0
2016-11-30T02:16:03.171Z,0
2016-11-30T02:17:03.207Z,0
2016-11-30T02:18:03.200Z,0
2016-11-30T02:19:03.511Z,0
2016-11-30T02:20:03.222Z,0
2016-11-30T02:21:18.157Z,0
2016-11-30T02:22:03.246Z,0
2016-11-30T02:23:03.266Z,0
2016-11-30T02:24:03.269Z,0
2016-11-30T02:25:03.285Z,0
2016-11-30T02:26:03.297Z,0
2016-11-30T02:27:03.319Z,0
2016-11-30T02:28:03.326Z,0
2016-11-30T02:29:03.347Z,0
2016-11-30T02:30:03.356Z,0
2016-11-30T02:31:03.363Z,0
2016-11-30T02:32:18.308Z,0
2016-11-30T02:33:18.317Z,0
2016-11-30T02:34:18.328Z,0
2016-11-30T02:35:18.342Z,0
2016-11-30T02:36:18.359Z,0
2016-11-30T02:37:03.447Z,0
2016-11-30T02:38:03.457Z,0
2016-11-30T02:39:18.391Z,0
2016-11-30T02:40:03.479Z,0
2016-11-30T02:41:03.499Z,0
2016-11-30T02:42:03.511Z,0
2016-11-30T02:43:03.532Z,0
2016-11-30T02:44:03.841Z,0
2016-11-30T02:45:03.560Z,0
2016-11-30T02:46:03.560Z,0
2016-11-30T02:48:03.595Z,0
2016-11-30T02:50:03.624Z,0
2016-11-30T02:51:03.635Z,0
2016-11-30T02:52:03.643Z,0
2016-11-30T02:53:03.661Z,0
2016-11-30T02:54:03.672Z,0
2016-11-30T02:55:03.683Z,0
2016-11-30T02:56:03.699Z,0
2016-11-30T02:57:03.717Z,0
2016-11-30T02:58:03.772Z,0
2016-11-30T02:59:03.737Z,0
2016-11-30T03:02:03.780Z,0
2016-11-30T03:05:03.817Z,0
2016-11-30T03:06:03.836Z,0
2016-11-30T03:07:03.841Z,0
2016-11-30T03:08:19.080Z,0
2016-11-30T03:09:03.873Z,0
2016-11-30T03:10:03.923Z,0
2016-11-30T03:11:03.893Z,0
2016-11-30T03:12:03.922Z,0
2016-11-30T03:13:03.928Z,0
2016-11-30T03:14:03.934Z,0
2016-11-30T03:15:03.954Z,0
2016-11-30T03:16:03.970Z,0
2016-11-30T03:17:03.982Z,0
2016-11-30T03:18:03.988Z,0
2016-11-30T03:19:04.009Z,0
2016-11-30T03:20:04.018Z,0
2016-11-30T03:21:04.027Z,0
2016-11-30T03:22:18.968Z,0
2016-11-30T03:23:04.054Z,0
2016-11-30T03:25:04.088Z,0
2016-11-30T03:26:04.097Z,0
2016-11-30T03:27:04.115Z,0
2016-11-30T03:28:04.160Z,0
2016-11-30T03:29:04.138Z,0
2016-11-30T03:31:04.467Z,0
2016-11-30T03:32:04.175Z,0
2016-11-30T03:33:04.217Z,0
2016-11-30T03:34:04.210Z,0
2016-11-30T03:35:19.144Z,0
2016-11-30T03:36:19.158Z,0
2016-11-30T03:37:04.244Z,0
2016-11-30T03:38:19.183Z,0
2016-11-30T03:39:19.210Z,0
2016-11-30T03:42:09.338Z,0
2016-11-30T03:43:19.244Z,0
2016-11-30T03:44:04.337Z,0
2016-11-30T03:45:04.347Z,0
2016-11-30T03:46:04.362Z,0
2016-11-30T03:47:04.379Z,0
2016-11-30T03:49:04.403Z,0
2016-11-30T03:50:04.417Z,0
2016-11-30T03:51:04.430Z,0
2016-11-30T03:52:04.443Z,0
2016-11-30T03:53:04.463Z,0
2016-11-30T03:54:04.475Z,0
2016-11-30T03:55:04.484Z,0
2016-11-30T03:56:19.418Z,0
2016-11-30T03:57:19.432Z,0
2016-11-30T03:58:04.527Z,0
2016-11-30T03:59:19.460Z,0
2016-11-30T04:00:19.625Z,0
2016-11-30T04:02:04.580Z,0
2016-11-30T04:03:04.595Z,0
2016-11-30T04:05:04.631Z,0
2016-11-30T04:06:04.635Z,0
2016-11-30T04:07:04.659Z,0
2016-11-30T04:08:04.660Z,0
2016-11-30T04:09:19.602Z,0
2016-11-30T04:10:04.704Z,0
2016-11-30T04:12:04.722Z,0
2016-11-30T04:13:04.747Z,0
2016-11-30T04:14:04.748Z,0
2016-11-30T04:15:04.760Z,0
2016-11-30T04:16:04.776Z,0
2016-11-30T04:17:04.789Z,0
2016-11-30T04:18:04.806Z,0
2016-11-30T04:19:04.817Z,0
2016-11-30T04:20:04.831Z,0
2016-11-30T04:21:04.849Z,0
2016-11-30T04:22:04.862Z,0
2016-11-30T04:23:19.798Z,0
2016-11-30T04:24:04.886Z,0
2016-11-30T04:25:19.826Z,0
2016-11-30T04:26:19.835Z,0
2016-11-30T04:27:04.929Z,0
2016-11-30T04:28:04.958Z,0
2016-11-30T04:29:04.960Z,0
2016-11-30T04:30:04.976Z,0
2016-11-30T04:31:04.982Z,0
2016-11-30T04:32:05.004Z,0
2016-11-30T04:33:05.006Z,0
2016-11-30T04:35:05.346Z,0
2016-11-30T04:37:05.074Z,0
2016-11-30T04:38:05.082Z,0
2016-11-30T04:39:05.090Z,0
2016-11-30T04:40:05.106Z,0
2016-11-30T04:41:05.115Z,0
2016-11-30T04:42:05.136Z,0
2016-11-30T04:43:20.066Z,0
2016-11-30T04:44:20.079Z,0
2016-11-30T04:45:20.101Z,0
2016-11-30T04:46:05.192Z,0
2016-11-30T04:47:05.206Z,0
2016-11-30T04:48:05.218Z,0
2016-11-30T04:49:05.241Z,0
2016-11-30T04:50:05.246Z,0
2016-11-30T04:51:05.264Z,0
2016-11-30T04:52:05.273Z,0
2016-11-30T04:53:05.287Z,0
2016-11-30T04:54:20.224Z,0
2016-11-30T04:55:05.314Z,0
2016-11-30T04:56:05.332Z,0
2016-11-30T04:57:05.340Z,0
2016-11-30T04:58:05.358Z,0
2016-11-30T04:59:20.288Z,0
2016-11-30T05:00:05.394Z,0
2016-11-30T05:01:05.405Z,0
2016-11-30T05:02:05.414Z,0
2016-11-30T05:03:05.430Z,0
2016-11-30T05:04:05.743Z,0
2016-11-30T05:05:05.461Z,0
2016-11-30T05:06:05.501Z,0
2016-11-30T05:07:05.486Z,0
2016-11-30T05:08:05.500Z,0
2016-11-30T05:09:05.512Z,0
2016-11-30T05:10:05.528Z,0
2016-11-30T05:11:05.544Z,0
2016-11-30T05:12:05.563Z,0
2016-11-30T05:13:20.488Z,0
2016-11-30T05:14:20.807Z,0
2016-11-30T05:15:20.516Z,0
2016-11-30T05:16:05.616Z,0
2016-11-30T05:17:05.629Z,0
2016-11-30T05:18:05.638Z,0
2016-11-30T05:19:05.649Z,0
2016-11-30T05:20:05.672Z,0
2016-11-30T05:21:05.680Z,0
2016-11-30T05:22:05.696Z,0
2016-11-30T05:23:06.060Z,0
2016-11-30T05:24:05.723Z,0
2016-11-30T05:25:05.744Z,0
2016-11-30T05:26:05.753Z,0
2016-11-30T05:28:05.788Z,0
2016-11-30T05:29:06.097Z,0
2016-11-30T05:30:05.812Z,0
2016-11-30T05:31:20.749Z,0
2016-11-30T05:32:20.754Z,0
2016-11-30T05:33:05.882Z,0
2016-11-30T05:34:05.865Z,0
2016-11-30T05:35:06.178Z,0
2016-11-30T05:36:05.894Z,0
2016-11-30T05:37:05.926Z,0
2016-11-30T05:38:05.923Z,0
2016-11-30T05:39:05.941Z,0
2016-11-30T05:40:05.957Z,0
2016-11-30T05:41:20.890Z,0
2016-11-30T05:42:05.974Z,0
2016-11-30T05:43:05.996Z,0
2016-11-30T05:44:06.008Z,0
2016-11-30T05:45:06.024Z,0
2016-11-30T05:46:20.955Z,0
2016-11-30T05:47:06.049Z,0
2016-11-30T05:48:06.063Z,0
2016-11-30T05:49:06.072Z,0
2016-11-30T05:50:06.098Z,0
2016-11-30T05:51:06.105Z,0
2016-11-30T05:52:06.128Z,0
2016-11-30T05:53:06.139Z,0
2016-11-30T05:54:06.154Z,0
2016-11-30T05:55:21.092Z,0
2016-11-30T05:56:21.157Z,0
2016-11-30T05:57:06.195Z,0
2016-11-30T05:58:06.210Z,0
2016-11-30T05:59:06.231Z,0
2016-11-30T06:00:21.169Z,0
2016-11-30T06:01:06.254Z,0
2016-11-30T06:02:06.267Z,0
2016-11-30T06:03:06.582Z,0
2016-11-30T06:04:06.296Z,0
2016-11-30T06:05:06.302Z,0
2016-11-30T06:06:06.325Z,0
2016-11-30T06:07:06.339Z,0
2016-11-30T06:08:06.351Z,0
2016-11-30T06:09:06.372Z,0
2016-11-30T06:10:06.384Z,0
2016-11-30T06:11:06.389Z,0
2016-11-30T06:12:21.334Z,0
2016-11-30T06:13:06.416Z,0
2016-11-30T06:14:06.439Z,0
2016-11-30T06:15:06.457Z,0
2016-11-30T06:16:06.497Z,0
2016-11-30T06:17:21.456Z,0
2016-11-30T06:18:21.417Z,0
2016-11-30T06:19:06.504Z,0
2016-11-30T06:20:06.531Z,0
2016-11-30T06:21:06.833Z,0
2016-11-30T06:23:06.559Z,0
2016-11-30T06:24:06.885Z,0
2016-11-30T06:25:06.594Z,0
2016-11-30T06:26:21.837Z,4
2016-11-30T06:27:06.628Z,4
2016-11-30T06:28:06.643Z,4
2016-11-30T06:29:06.651Z,4
2016-11-30T06:30:06.665Z,0
2016-11-30T06:31:06.680Z,4
2016-11-30T06:32:06.699Z,4
2016-11-30T06:33:21.639Z,4
2016-11-30T06:34:21.645Z,4
2016-11-30T06:35:21.657Z,4
2016-11-30T06:36:06.758Z,4
2016-11-30T06:37:06.767Z,8
2016-11-30T06:38:06.778Z,8
2016-11-30T06:40:06.813Z,12
2016-11-30T06:41:06.828Z,12
2016-11-30T06:42:06.845Z,16
2016-11-30T06:44:06.872Z,20
2016-11-30T06:45:06.888Z,20
2016-11-30T06:46:06.905Z,24
2016-11-30T06:47:06.910Z,24
2016-11-30T06:48:21.851Z,28
2016-11-30T06:49:06.949Z,28
2016-11-30T06:50:21.930Z,32
2016-11-30T06:51:06.974Z,36
2016-11-30T06:52:06.991Z,40
2016-11-30T06:53:07.012Z,48
2016-11-30T06:54:07.019Z,48
2016-11-30T06:55:07.026Z,56
2016-11-30T06:56:07.051Z,56
2016-11-30T06:57:07.066Z,56
2016-11-30T06:58:07.080Z,60
2016-11-30T06:59:22.021Z,68
2016-11-30T07:00:07.416Z,72
2016-11-30T07:01:07.126Z,72
2016-11-30T07:02:22.087Z,80
2016-11-30T07:03:22.074Z,84
2016-11-30T07:04:22.090Z,84
2016-11-30T07:05:07.482Z,84
2016-11-30T07:06:22.112Z,92
2016-11-30T07:07:07.216Z,92
2016-11-30T07:08:07.222Z,100
2016-11-30T07:09:22.160Z,116
2016-11-30T07:10:07.255Z,124
2016-11-30T07:11:07.263Z,124
2016-11-30T07:12:07.280Z,124
2016-11-30T07:13:07.296Z,140
2016-11-30T07:14:07.315Z,148
2016-11-30T07:15:07.329Z,160
2016-11-30T07:16:07.340Z,164
2016-11-30T07:18:07.366Z,172
2016-11-30T07:19:07.391Z,180
2016-11-30T07:20:07.409Z,180
2016-11-30T07:21:22.341Z,176
2016-11-30T07:22:22.348Z,176
2016-11-30T07:23:22.367Z,172
2016-11-30T07:24:07.459Z,176
2016-11-30T07:25:07.814Z,176
2016-11-30T07:26:07.502Z,184
2016-11-30T07:27:07.560Z,184
2016-11-30T07:28:07.519Z,192
2016-11-30T07:29:07.535Z,200
2016-11-30T07:30:07.549Z,208
2016-11-30T07:31:07.571Z,208
2016-11-30T07:32:07.584Z,212
2016-11-30T07:33:07.604Z,220
2016-11-30T07:34:07.613Z,228
2016-11-30T07:35:07.632Z,228
2016-11-30T07:36:07.642Z,232
2016-11-30T07:37:07.657Z,228
2016-11-30T07:38:22.590Z,240
2016-11-30T07:39:07.683Z,244
2016-11-30T07:41:07.716Z,264
2016-11-30T07:42:07.761Z,288
2016-11-30T07:43:07.746Z,296
2016-11-30T07:44:07.794Z,324
2016-11-30T07:45:07.778Z,356
2016-11-30T07:46:07.796Z,400
2016-11-30T07:47:07.812Z,408
2016-11-30T07:49:07.895Z,372
2016-11-30T07:50:07.852Z,356
2016-11-30T07:51:07.866Z,344
2016-11-30T07:52:22.803Z,324
2016-11-30T07:53:22.828Z,312
2016-11-30T07:54:22.835Z,316
2016-11-30T07:55:07.932Z,344
2016-11-30T07:56:07.946Z,368
2016-11-30T07:57:07.968Z,356
2016-11-30T07:58:07.975Z,336
2016-11-30T07:59:07.997Z,320
2016-11-30T08:00:07.998Z,344
2016-11-30T08:01:08.327Z,392
2016-11-30T08:02:08.030Z,416
2016-11-30T08:03:08.050Z,444
2016-11-30T08:04:08.069Z,416
2016-11-30T08:05:08.082Z,348
2016-11-30T08:06:08.098Z,324
2016-11-30T08:07:08.114Z,336
2016-11-30T08:08:23.046Z,352
2016-11-30T08:09:23.065Z,372
2016-11-30T08:11:08.478Z,412
2016-11-30T08:12:08.197Z,392
2016-11-30T08:13:08.201Z,384
2016-11-30T08:14:08.222Z,424
2016-11-30T08:15:08.239Z,464
2016-11-30T08:16:08.282Z,496
2016-11-30T08:17:08.266Z,500
2016-11-30T08:18:08.275Z,552
2016-11-30T08:19:08.302Z,580
2016-11-30T08:20:08.319Z,564
2016-11-30T08:21:08.325Z,516
2016-11-30T08:22:08.337Z,556
2016-11-30T08:23:08.352Z,628
2016-11-30T08:24:08.373Z,620
2016-11-30T08:25:23.333Z,728
2016-11-30T08:26:23.321Z,748
2016-11-30T08:27:08.421Z,760
2016-11-30T08:28:23.350Z,716
2016-11-30T08:29:08.449Z,688
2016-11-30T08:30:08.515Z,756
2016-11-30T08:31:08.474Z,780
2016-11-30T08:32:08.489Z,788
2016-11-30T08:33:08.508Z,732
2016-11-30T08:34:08.530Z,652
2016-11-30T08:36:08.553Z,600
2016-11-30T08:37:08.572Z,616
2016-11-30T08:38:23.510Z,688
2016-11-30T08:39:23.526Z,740
2016-11-30T08:40:08.625Z,812
2016-11-30T08:41:23.555Z,920
2016-11-30T08:42:08.648Z,920
2016-11-30T08:43:08.669Z,916
2016-11-30T08:44:08.686Z,916
2016-11-30T08:45:08.696Z,884
2016-11-30T08:46:08.711Z,980
2016-11-30T08:47:09.028Z,1092
2016-11-30T08:48:08.744Z,1064
2016-11-30T08:49:08.764Z,1148
2016-11-30T08:50:08.774Z,1156
2016-11-30T08:51:08.794Z,1104
2016-11-30T08:52:08.807Z,1028
2016-11-30T08:53:08.827Z,1008
2016-11-30T08:54:08.841Z,920
2016-11-30T08:55:08.847Z,928
2016-11-30T08:57:08.883Z,776
2016-11-30T08:58:08.902Z,740
2016-11-30T08:59:09.215Z,804
2016-11-30T09:00:08.928Z,920
2016-11-30T09:01:23.879Z,984
2016-11-30T09:02:08.959Z,1164
2016-11-30T09:03:08.974Z,1148
2016-11-30T09:04:09.298Z,1276
2016-11-30T09:05:09.016Z,1380
2016-11-30T09:06:09.024Z,1472
2016-11-30T09:07:09.057Z,1612
2016-11-30T09:08:23.979Z,1704
2016-11-30T09:09:24.000Z,1504
2016-11-30T09:10:09.141Z,1424
2016-11-30T09:11:24.026Z,1288
2016-11-30T09:12:09.120Z,1160
2016-11-30T09:13:09.135Z,1080
2016-11-30T09:14:09.156Z,1204
2016-11-30T09:15:09.165Z,1256
2016-11-30T09:16:09.188Z,1164
2016-11-30T09:17:09.196Z,1268
2016-11-30T09:18:09.219Z,1388
2016-11-30T09:19:09.226Z,1456
2016-11-30T09:21:09.254Z,1064
2016-11-30T09:22:09.277Z,956
2016-11-30T09:23:09.289Z,848
2016-11-30T09:24:09.307Z,680
2016-11-30T09:25:24.248Z,556
2016-11-30T09:26:24.262Z,592
2016-11-30T09:27:09.358Z,704
2016-11-30T09:28:24.299Z,880
2016-11-30T09:29:09.400Z,932
2016-11-30T09:30:09.400Z,1004
2016-11-30T09:31:09.412Z,1260
2016-11-30T09:32:09.436Z,1500
2016-11-30T09:33:09.455Z,1348
2016-11-30T09:34:09.470Z,1464
2016-11-30T09:35:09.480Z,1336
2016-11-30T09:38:24.456Z,968
2016-11-30T09:39:09.541Z,876
2016-11-30T09:40:24.483Z,868
2016-11-30T09:41:09.573Z,872
2016-11-30T09:42:09.588Z,916
2016-11-30T09:44:24.545Z,660
2016-11-30T09:45:09.639Z,708
2016-11-30T09:46:09.658Z,712
2016-11-30T09:47:09.673Z,720
2016-11-30T09:48:09.697Z,684
2016-11-30T09:49:09.704Z,756
2016-11-30T09:50:09.713Z,832
2016-11-30T09:51:09.741Z,712
2016-11-30T09:53:09.768Z,768
2016-11-30T09:54:09.810Z,948
2016-11-30T09:55:09.796Z,912
2016-11-30T09:56:24.788Z,888
2016-11-30T09:57:09.823Z,932
2016-11-30T09:58:24.768Z,888
2016-11-30T09:59:09.964Z,916
2016-11-30T10:00:24.803Z,1120
2016-11-30T10:01:09.895Z,1316
2016-11-30T10:02:09.911Z,1688
2016-11-30T10:03:09.929Z,1948
2016-11-30T10:04:09.941Z,2284
2016-11-30T10:05:10.569Z,2416
2016-11-30T10:06:10.024Z,2400
2016-11-30T10:07:10.001Z,2324
2016-11-30T10:08:10.011Z,2248
2016-11-30T10:09:10.029Z,2228
2016-11-30T10:10:10.043Z,2408
2016-11-30T10:11:10.046Z,2480
2016-11-30T10:12:10.064Z,2352
2016-11-30T10:13:25.016Z,2528
2016-11-30T10:14:25.021Z,2748
2016-11-30T10:15:10.109Z,2884
2016-11-30T10:16:25.057Z,3176
2016-11-30T10:17:10.159Z,3272
2016-11-30T10:18:25.081Z,3416
2016-11-30T10:19:25.101Z,3368
2016-11-30T10:20:10.197Z,3432
2016-11-30T10:21:10.213Z,3132
2016-11-30T10:22:10.233Z,2912
2016-11-30T10:23:10.240Z,3116
2016-11-30T10:25:10.587Z,3524
2016-11-30T10:26:10.296Z,3720
2016-11-30T10:27:10.311Z,3988
2016-11-30T10:28:25.253Z,3948
2016-11-30T10:29:25.267Z,3728
2016-11-30T10:30:25.283Z,3608
2016-11-30T10:31:25.292Z,3660
2016-11-30T10:32:10.394Z,3744
2016-11-30T10:34:25.345Z,3392
2016-11-30T10:36:10.457Z,2964
2016-11-30T10:37:10.522Z,2872
2016-11-30T10:38:10.487Z,2516
2016-11-30T10:39:10.504Z,2308
2016-11-30T10:40:10.529Z,2056
2016-11-30T10:41:10.540Z,1864
2016-11-30T10:42:10.556Z,1856
2016-11-30T10:43:10.576Z,1692
2016-11-30T10:44:10.590Z,1564
2016-11-30T10:45:10.610Z,1492
2016-11-30T10:46:10.621Z,1432
2016-11-30T10:47:10.641Z,1496
2016-11-30T10:48:25.580Z,1692
2016-11-30T10:49:10.978Z,1860
2016-11-30T10:50:10.690Z,1992
2016-11-30T10:51:10.702Z,1988
2016-11-30T10:52:10.727Z,1992
2016-11-30T10:53:10.744Z,2048
2016-11-30T10:54:10.761Z,2100
2016-11-30T10:55:10.772Z,2260
2016-11-30T10:56:10.793Z,2468
2016-11-30T10:57:10.809Z,2648
2016-11-30T10:58:10.877Z,2752
2016-11-30T11:00:10.912Z,2652
2016-11-30T11:01:10.876Z,2644
2016-11-30T11:02:10.935Z,2776
2016-11-30T11:03:25.831Z,2640
2016-11-30T11:04:10.926Z,2500
2016-11-30T11:05:10.940Z,2484
2016-11-30T11:06:10.952Z,2548
2016-11-30T11:07:10.981Z,2488
2016-11-30T11:08:10.987Z,2520
2016-11-30T11:09:11.320Z,2508
2016-11-30T11:10:11.021Z,2532
2016-11-30T11:11:11.341Z,2612
2016-11-30T11:12:11.053Z,2660
2016-11-30T11:13:11.064Z,2592
2016-11-30T11:14:11.092Z,2524
2016-11-30T11:15:11.165Z,2596
2016-11-30T11:16:26.046Z,2744
2016-11-30T11:17:11.142Z,2792
2016-11-30T11:18:11.185Z,2744
2016-11-30T11:19:26.092Z,2648
2016-11-30T11:20:11.192Z,2684
2016-11-30T11:21:11.256Z,2692
2016-11-30T11:22:26.139Z,2652
2016-11-30T11:23:11.242Z,2624
2016-11-30T11:24:11.255Z,2608
2016-11-30T11:25:11.281Z,2532
2016-11-30T11:26:11.284Z,2356
2016-11-30T11:27:11.307Z,2256
2016-11-30T11:28:11.322Z,2164
2016-11-30T11:29:11.336Z,2052
2016-11-30T11:30:11.401Z,2072
2016-11-30T11:31:11.372Z,2144
2016-11-30T11:32:26.315Z,2216
2016-11-30T11:33:11.407Z,2200
2016-11-30T11:35:26.367Z,2236
2016-11-30T11:36:26.383Z,2260
2016-11-30T11:37:11.474Z,2288
2016-11-30T11:39:11.506Z,2300
2016-11-30T11:40:11.531Z,2236
2016-11-30T11:41:26.458Z,2120
2016-11-30T11:42:11.550Z,2008
2016-11-30T11:43:11.578Z,2072
2016-11-30T11:44:11.908Z,2044
2016-11-30T11:45:11.760Z,2004
2016-11-30T11:46:11.624Z,1964
2016-11-30T11:48:11.667Z,2044
2016-11-30T11:49:11.877Z,2068
2016-11-30T11:50:11.795Z,2048
2016-11-30T11:51:26.632Z,1956
2016-11-30T11:52:26.646Z,1984
2016-11-30T11:53:11.745Z,2168
2016-11-30T11:54:11.762Z,2240
2016-11-30T11:55:11.784Z,2252
2016-11-30T11:56:11.805Z,2392
2016-11-30T11:57:11.810Z,2456
2016-11-30T11:59:11.853Z,2336
2016-11-30T12:00:11.867Z,2332
2016-11-30T12:01:11.892Z,2264
2016-11-30T12:02:11.891Z,2116
2016-11-30T12:03:26.839Z,1836
2016-11-30T12:04:11.954Z,1716
2016-11-30T12:05:11.954Z,1652
2016-11-30T12:06:26.888Z,1640
2016-11-30T12:07:26.919Z,1716
2016-11-30T12:08:11.999Z,1868
2016-11-30T12:09:12.017Z,2076
2016-11-30T12:10:12.079Z,2212
2016-11-30T12:11:12.051Z,2352
2016-11-30T12:12:12.073Z,2400
2016-11-30T12:13:12.087Z,2252
2016-11-30T12:14:12.105Z,2288
2016-11-30T12:15:12.126Z,2212
2016-11-30T12:16:12.142Z,2088
2016-11-30T12:17:12.154Z,2008
2016-11-30T12:18:12.168Z,1852
2016-11-30T12:19:27.109Z,1752
2016-11-30T12:20:12.203Z,1728
2016-11-30T12:21:27.145Z,1672
2016-11-30T12:22:12.240Z,1596
2016-11-30T12:23:12.253Z,1492
2016-11-30T12:24:27.188Z,1556
2016-11-30T12:25:12.289Z,1656
2016-11-30T12:26:12.303Z,1732
2016-11-30T12:27:12.318Z,1712
2016-11-30T12:28:12.338Z,1708
2016-11-30T12:29:12.361Z,1672
2016-11-30T12:31:12.393Z,1568
2016-11-30T12:32:12.410Z,1572
2016-11-30T12:34:12.442Z,1420
2016-11-30T12:35:12.465Z,1332
2016-11-30T12:36:12.473Z,1304
2016-11-30T12:38:27.429Z,1364
2016-11-30T12:39:12.532Z,1396
2016-11-30T12:40:12.550Z,1316
2016-11-30T12:41:12.939Z,1260
2016-11-30T12:43:12.604Z,1084
2016-11-30T12:44:12.611Z,984
2016-11-30T12:45:12.631Z,892
2016-11-30T12:46:12.643Z,832
2016-11-30T12:47:12.974Z,808
2016-11-30T12:48:12.689Z,740
2016-11-30T12:49:12.701Z,648
2016-11-30T12:50:27.644Z,600
2016-11-30T12:51:27.660Z,612
2016-11-30T12:52:27.677Z,632
2016-11-30T12:53:12.779Z,700
2016-11-30T12:54:27.707Z,724
2016-11-30T12:55:12.815Z,732
2016-11-30T12:56:12.816Z,744
2016-11-30T12:57:12.840Z,704
2016-11-30T12:58:27.771Z,688
2016-11-30T12:59:27.802Z,684
2016-11-30T13:00:12.992Z,628
2016-11-30T13:01:27.881Z,544
2016-11-30T13:02:12.926Z,592
2016-11-30T13:03:12.996Z,516
2016-11-30T13:04:12.952Z,516
2016-11-30T13:05:12.973Z,560
2016-11-30T13:06:27.914Z,604
2016-11-30T13:07:13.014Z,520
2016-11-30T13:08:13.022Z,440
2016-11-30T13:09:13.048Z,412
2016-11-30T13:10:28.036Z,412
2016-11-30T13:11:13.077Z,484
2016-11-30T13:12:13.106Z,472
2016-11-30T13:13:13.108Z,436
2016-11-30T13:14:13.124Z,360
2016-11-30T13:17:13.185Z,340
2016-11-30T13:18:13.197Z,332
2016-11-30T13:19:13.213Z,340
2016-11-30T13:20:13.231Z,340
2016-11-30T13:23:13.276Z,308
2016-11-30T13:24:13.299Z,300
2016-11-30T13:25:28.236Z,284
2016-11-30T13:26:28.251Z,320
2016-11-30T13:27:13.347Z,300
2016-11-30T13:28:13.360Z,264
2016-11-30T13:29:13.390Z,272
2016-11-30T13:31:13.414Z,292
2016-11-30T13:32:13.442Z,276
2016-11-30T13:33:13.445Z,256
2016-11-30T13:34:13.465Z,240
2016-11-30T13:35:13.484Z,228
2016-11-30T13:36:13.502Z,232
2016-11-30T13:37:13.519Z,264
2016-11-30T13:38:13.537Z,248
2016-11-30T13:39:13.550Z,228
2016-11-30T13:40:13.567Z,216
2016-11-30T13:41:28.514Z,192
2016-11-30T13:42:13.606Z,188
2016-11-30T13:43:28.535Z,212
2016-11-30T13:44:13.674Z,196
2016-11-30T13:45:28.570Z,192
2016-11-30T13:46:13.668Z,192
2016-11-30T13:47:13.684Z,224
2016-11-30T13:48:13.708Z,192
2016-11-30T13:49:13.723Z,180
2016-11-30T13:50:13.730Z,152
2016-11-30T13:51:13.759Z,140
2016-11-30T13:52:13.774Z,160
2016-11-30T13:53:13.782Z,144
2016-11-30T13:54:13.804Z,164
2016-11-30T13:55:28.744Z,184
2016-11-30T13:56:28.758Z,196
2016-11-30T13:57:13.848Z,184
2016-11-30T13:58:13.872Z,184
2016-11-30T13:59:13.934Z,160
2016-11-30T14:00:14.010Z,144
2016-11-30T14:01:14.219Z,148
2016-11-30T14:02:13.933Z,160
2016-11-30T14:03:14.010Z,148
2016-11-30T14:04:13.966Z,144
2016-11-30T14:05:13.982Z,140
2016-11-30T14:06:14.002Z,124
2016-11-30T14:07:14.019Z,108
2016-11-30T14:08:14.037Z,108
2016-11-30T14:09:14.056Z,120
2016-11-30T14:10:14.070Z,112
2016-11-30T14:11:29.011Z,104
2016-11-30T14:12:14.112Z,92
2016-11-30T14:13:29.047Z,104
2016-11-30T14:14:29.058Z,112
2016-11-30T14:15:14.152Z,108
2016-11-30T14:16:14.487Z,104
2016-11-30T14:17:14.190Z,92
2016-11-30T14:18:14.515Z,84
2016-11-30T14:20:14.244Z,88
2016-11-30T14:21:14.252Z,88
2016-11-30T14:22:14.580Z,84
2016-11-30T14:23:14.295Z,92
2016-11-30T14:24:14.614Z,88
2016-11-30T14:25:14.323Z,72
2016-11-30T14:26:14.342Z,68
2016-11-30T14:27:14.354Z,68
2016-11-30T14:28:14.367Z,68
2016-11-30T14:29:29.310Z,68
2016-11-30T14:30:29.325Z,60
2016-11-30T14:31:14.429Z,60
2016-11-30T14:33:14.804Z,52
2016-11-30T14:34:14.472Z,48
2016-11-30T14:35:14.488Z,44
2016-11-30T14:36:14.506Z,44
2016-11-30T14:37:14.528Z,40
2016-11-30T14:38:14.547Z,36
2016-11-30T14:39:14.601Z,36
2016-11-30T14:40:14.569Z,32
2016-11-30T14:41:14.590Z,36
2016-11-30T14:43:14.617Z,28
2016-11-30T14:44:14.631Z,24
2016-11-30T14:45:29.576Z,20
2016-11-30T14:46:14.669Z,16
2016-11-30T14:47:15.145Z,16
2016-11-30T14:48:29.623Z,24
2016-11-30T14:49:14.718Z,20
2016-11-30T14:50:14.735Z,12
2016-11-30T14:51:14.752Z,12
2016-11-30T14:52:14.773Z,12
2016-11-30T14:53:14.786Z,12
2016-11-30T14:54:14.803Z,20
2016-11-30T14:56:14.862Z,12
2016-11-30T14:57:14.856Z,8
2016-11-30T14:58:14.870Z,8
2016-11-30T14:59:30.114Z,8
2016-11-30T15:00:14.901Z,8
2016-11-30T15:01:29.844Z,8
2016-11-30T15:02:14.936Z,8
2016-11-30T15:03:29.923Z,8
2016-11-30T15:04:29.896Z,8
2016-11-30T15:05:30.161Z,4
2016-11-30T15:06:15.008Z,8
2016-11-30T15:07:15.018Z,4
2016-11-30T15:08:15.041Z,4
2016-11-30T15:10:15.071Z,4
2016-11-30T15:11:15.395Z,4